sensor_id;sensor_type;location;lat;lon;timestamp;temperature;humidity
4602;DHT22;2313;48.552;9.370;2022-09-17T00:02:20;11.00;99.90
4602;DHT22;2313;48.552;9.370;2022-09-17T00:04:48;11.00;99.90
4602;DHT22;2313;48.552;9.370;2022-09-17T00:07:14;11.00;99.90
4602;DHT22;2313;48.552;9.370;2022-09-17T00:09:40;11.00;99.90
4602;DHT22;2313;48.552;9.370;2022-09-17T00:12:05;10.90;99.90
4602;DHT22;2313;48.552;9.370;2022-09-17T00:14:31;11.00;99.90
4602;DHT22;2313;48.552;9.370;2022-09-17T00:16:57;11.10;99.90
4602;DHT22;2313;48.552;9.370;2022-09-17T00:19:22;10.90;99.90
4602;DHT22;2313;48.552;9.370;2022-09-17T00:21:50;11.00;99.90
4602;DHT22;2313;48.552;9.370;2022-09-17T00:24:16;10.90;99.90
4602;DHT22;2313;48.552;9.370;2022-09-17T00:26:42;10.80;99.90
4602;DHT22;2313;48.552;9.370;2022-09-17T00:29:09;10.70;99.90
4602;DHT22;2313;48.552;9.370;2022-09-17T00:31:35;10.80;99.90
4602;DHT22;2313;48.552;9.370;2022-09-17T00:34:02;10.70;99.90
4602;DHT22;2313;48.552;9.370;2022-09-17T00:36:28;10.70;99.90
4602;DHT22;2313;48.552;9.370;2022-09-17T00:38:56;10.70;99.90
4602;DHT22;2313;48.552;9.370;2022-09-17T00:41:24;10.80;99.90
4602;DHT22;2313;48.552;9.370;2022-09-17T00:43:53;10.80;99.90
4602;DHT22;2313;48.552;9.370;2022-09-17T00:46:38;10.80;99.90
4602;DHT22;2313;48.552;9.370;2022-09-17T00:49:20;10.80;99.90
4602;DHT22;2313;48.552;9.370;2022-09-17T00:55:15;10.70;99.90
4602;DHT22;2313;48.552;9.370;2022-09-17T00:57:39;10.70;99.90
4602;DHT22;2313;48.552;9.370;2022-09-17T01:00:06;10.60;99.90
4602;DHT22;2313;48.552;9.370;2022-09-17T01:02:33;10.60;99.90
4602;DHT22;2313;48.552;9.370;2022-09-17T01:04:59;10.60;99.90
4602;DHT22;2313;48.552;9.370;2022-09-17T01:07:47;10.60;99.90
4602;DHT22;2313;48.552;9.370;2022-09-17T01:16:54;10.50;99.90
4602;DHT22;2313;48.552;9.370;2022-09-17T01:30:06;10.60;99.90
4602;DHT22;2313;48.552;9.370;2022-09-17T01:32:57;10.60;99.90
4602;DHT22;2313;48.552;9.370;2022-09-17T01:40:47;10.60;99.90
4602;DHT22;2313;48.552;9.370;2022-09-17T01:43:25;10.50;99.90
4602;DHT22;2313;48.552;9.370;2022-09-17T01:46:13;10.60;99.90
4602;DHT22;2313;48.552;9.370;2022-09-17T01:48:43;10.50;99.90
4602;DHT22;2313;48.552;9.370;2022-09-17T01:51:16;10.60;99.90
4602;DHT22;2313;48.552;9.370;2022-09-17T01:53:59;10.60;99.90
4602;DHT22;2313;48.552;9.370;2022-09-17T01:56:55;10.60;99.90
4602;DHT22;2313;48.552;9.370;2022-09-17T01:59:49;10.50;99.90
4602;DHT22;2313;48.552;9.370;2022-09-17T02:05:15;10.50;99.90
4602;DHT22;2313;48.552;9.370;2022-09-17T02:07:45;10.40;99.90
4602;DHT22;2313;48.552;9.370;2022-09-17T02:10:15;10.40;99.90
4602;DHT22;2313;48.552;9.370;2022-09-17T02:12:45;10.60;99.90
4602;DHT22;2313;48.552;9.370;2022-09-17T02:15:23;10.40;99.90
4602;DHT22;2313;48.552;9.370;2022-09-17T02:18:29;10.40;99.90
4602;DHT22;2313;48.552;9.370;2022-09-17T02:21:04;10.40;99.90
4602;DHT22;2313;48.552;9.370;2022-09-17T02:23:35;10.30;99.90
4602;DHT22;2313;48.552;9.370;2022-09-17T02:26:10;10.30;99.90
4602;DHT22;2313;48.552;9.370;2022-09-17T02:29:08;10.30;99.90
4602;DHT22;2313;48.552;9.370;2022-09-17T02:31:36;10.30;99.90
4602;DHT22;2313;48.552;9.370;2022-09-17T02:34:03;10.30;99.90
4602;DHT22;2313;48.552;9.370;2022-09-17T02:36:30;10.10;99.90
4602;DHT22;2313;48.552;9.370;2022-09-17T02:39:00;10.30;99.90
4602;DHT22;2313;48.552;9.370;2022-09-17T02:41:50;10.40;99.90
4602;DHT22;2313;48.552;9.370;2022-09-17T02:44:35;10.40;99.90
4602;DHT22;2313;48.552;9.370;2022-09-17T03:00:43;10.40;99.90
4602;DHT22;2313;48.552;9.370;2022-09-17T03:03:16;10.40;99.90
4602;DHT22;2313;48.552;9.370;2022-09-17T03:05:45;10.30;99.90
4602;DHT22;2313;48.552;9.370;2022-09-17T03:08:13;10.30;99.90
4602;DHT22;2313;48.552;9.370;2022-09-17T03:10:38;10.30;99.90
4602;DHT22;2313;48.552;9.370;2022-09-17T03:13:05;10.30;99.90
4602;DHT22;2313;48.552;9.370;2022-09-17T03:15:30;10.40;99.90
4602;DHT22;2313;48.552;9.370;2022-09-17T03:17:56;10.40;99.90
4602;DHT22;2313;48.552;9.370;2022-09-17T03:20:21;10.40;99.90
4602;DHT22;2313;48.552;9.370;2022-09-17T03:22:47;10.50;99.90
4602;DHT22;2313;48.552;9.370;2022-09-17T03:25:13;10.40;99.90
4602;DHT22;2313;48.552;9.370;2022-09-17T03:27:38;10.40;99.90
4602;DHT22;2313;48.552;9.370;2022-09-17T03:30:06;10.40;99.90
4602;DHT22;2313;48.552;9.370;2022-09-17T03:32:32;10.30;99.90
4602;DHT22;2313;48.552;9.370;2022-09-17T03:34:58;10.30;99.90
4602;DHT22;2313;48.552;9.370;2022-09-17T03:37:23;10.30;99.90
4602;DHT22;2313;48.552;9.370;2022-09-17T03:39:49;10.30;99.90
4602;DHT22;2313;48.552;9.370;2022-09-17T03:42:15;10.40;99.90
4602;DHT22;2313;48.552;9.370;2022-09-17T03:44:40;10.20;99.90
4602;DHT22;2313;48.552;9.370;2022-09-17T03:47:06;10.20;99.90
4602;DHT22;2313;48.552;9.370;2022-09-17T03:49:32;10.10;99.90
4602;DHT22;2313;48.552;9.370;2022-09-17T03:51:57;10.10;99.90
4602;DHT22;2313;48.552;9.370;2022-09-17T03:54:24;10.00;99.90
4602;DHT22;2313;48.552;9.370;2022-09-17T03:56:50;10.00;99.90
4602;DHT22;2313;48.552;9.370;2022-09-17T03:59:15;10.00;99.90
4602;DHT22;2313;48.552;9.370;2022-09-17T04:01:41;9.90;99.90
4602;DHT22;2313;48.552;9.370;2022-09-17T04:04:07;10.00;99.90
4602;DHT22;2313;48.552;9.370;2022-09-17T04:06:33;9.90;99.90
4602;DHT22;2313;48.552;9.370;2022-09-17T04:08:58;9.90;99.90
4602;DHT22;2313;48.552;9.370;2022-09-17T04:11:25;9.90;99.90
4602;DHT22;2313;48.552;9.370;2022-09-17T04:13:51;10.00;99.90
4602;DHT22;2313;48.552;9.370;2022-09-17T04:16:17;10.00;99.90
4602;DHT22;2313;48.552;9.370;2022-09-17T04:18:42;9.90;99.90
4602;DHT22;2313;48.552;9.370;2022-09-17T04:21:08;9.90;99.90
4602;DHT22;2313;48.552;9.370;2022-09-17T04:23:33;9.90;99.90
4602;DHT22;2313;48.552;9.370;2022-09-17T04:25:59;10.00;99.90
4602;DHT22;2313;48.552;9.370;2022-09-17T04:28:25;10.00;99.90
4602;DHT22;2313;48.552;9.370;2022-09-17T04:30:50;10.00;99.90
4602;DHT22;2313;48.552;9.370;2022-09-17T04:33:16;10.10;99.90
4602;DHT22;2313;48.552;9.370;2022-09-17T04:35:42;10.00;99.90
4602;DHT22;2313;48.552;9.370;2022-09-17T04:38:08;10.00;99.90
4602;DHT22;2313;48.552;9.370;2022-09-17T04:40:33;10.00;99.90
4602;DHT22;2313;48.552;9.370;2022-09-17T04:42:59;10.00;99.90
4602;DHT22;2313;48.552;9.370;2022-09-17T04:45:27;10.00;99.90
4602;DHT22;2313;48.552;9.370;2022-09-17T04:47:54;10.00;99.90
4602;DHT22;2313;48.552;9.370;2022-09-17T04:50:20;10.00;99.90
4602;DHT22;2313;48.552;9.370;2022-09-17T04:52:48;9.90;99.90
4602;DHT22;2313;48.552;9.370;2022-09-17T04:55:14;9.90;99.90
4602;DHT22;2313;48.552;9.370;2022-09-17T04:57:51;9.90;99.90
4602;DHT22;2313;48.552;9.370;2022-09-17T05:00:18;9.90;99.90
4602;DHT22;2313;48.552;9.370;2022-09-17T05:02:48;9.90;99.90
4602;DHT22;2313;48.552;9.370;2022-09-17T05:05:15;9.80;99.90
4602;DHT22;2313;48.552;9.370;2022-09-17T05:07:41;9.90;99.90
4602;DHT22;2313;48.552;9.370;2022-09-17T05:10:08;9.90;99.90
4602;DHT22;2313;48.552;9.370;2022-09-17T05:12:34;9.90;99.90
4602;DHT22;2313;48.552;9.370;2022-09-17T05:14:59;9.90;99.90
4602;DHT22;2313;48.552;9.370;2022-09-17T05:17:25;9.80;99.90
4602;DHT22;2313;48.552;9.370;2022-09-17T05:19:50;9.80;99.90
4602;DHT22;2313;48.552;9.370;2022-09-17T05:22:18;9.80;99.90
4602;DHT22;2313;48.552;9.370;2022-09-17T05:24:43;9.80;99.90
4602;DHT22;2313;48.552;9.370;2022-09-17T05:27:09;9.90;99.90
4602;DHT22;2313;48.552;9.370;2022-09-17T05:29:35;9.80;99.90
4602;DHT22;2313;48.552;9.370;2022-09-17T05:32:02;9.90;99.90
4602;DHT22;2313;48.552;9.370;2022-09-17T05:34:28;9.90;99.90
4602;DHT22;2313;48.552;9.370;2022-09-17T05:36:53;9.90;99.90
4602;DHT22;2313;48.552;9.370;2022-09-17T05:39:19;10.00;99.90
4602;DHT22;2313;48.552;9.370;2022-09-17T05:41:47;10.00;99.90
4602;DHT22;2313;48.552;9.370;2022-09-17T05:44:12;10.00;99.90
4602;DHT22;2313;48.552;9.370;2022-09-17T05:46:38;10.00;99.90
4602;DHT22;2313;48.552;9.370;2022-09-17T05:49:04;10.00;99.90
4602;DHT22;2313;48.552;9.370;2022-09-17T05:51:29;10.00;99.90
4602;DHT22;2313;48.552;9.370;2022-09-17T05:53:56;10.00;99.90
4602;DHT22;2313;48.552;9.370;2022-09-17T05:56:21;9.90;99.90
4602;DHT22;2313;48.552;9.370;2022-09-17T05:58:48;9.90;99.90
4602;DHT22;2313;48.552;9.370;2022-09-17T06:01:14;10.00;99.90
4602;DHT22;2313;48.552;9.370;2022-09-17T06:03:41;10.00;99.90
4602;DHT22;2313;48.552;9.370;2022-09-17T06:06:07;10.10;99.90
4602;DHT22;2313;48.552;9.370;2022-09-17T06:08:33;10.00;99.90
4602;DHT22;2313;48.552;9.370;2022-09-17T06:11:05;10.00;99.90
4602;DHT22;2313;48.552;9.370;2022-09-17T06:13:32;10.10;99.90
4602;DHT22;2313;48.552;9.370;2022-09-17T06:15:58;10.10;99.90
4602;DHT22;2313;48.552;9.370;2022-09-17T06:18:23;10.00;99.90
4602;DHT22;2313;48.552;9.370;2022-09-17T06:21:00;10.00;99.90
4602;DHT22;2313;48.552;9.370;2022-09-17T06:23:27;10.10;99.90
4602;DHT22;2313;48.552;9.370;2022-09-17T06:25:57;10.10;99.90
4602;DHT22;2313;48.552;9.370;2022-09-17T06:28:24;10.10;99.90
4602;DHT22;2313;48.552;9.370;2022-09-17T06:30:53;10.20;99.90
4602;DHT22;2313;48.552;9.370;2022-09-17T06:33:22;10.10;99.90
4602;DHT22;2313;48.552;9.370;2022-09-17T06:35:48;10.20;99.90
4602;DHT22;2313;48.552;9.370;2022-09-17T06:38:20;10.10;99.90
4602;DHT22;2313;48.552;9.370;2022-09-17T06:40:49;10.20;99.90
4602;DHT22;2313;48.552;9.370;2022-09-17T06:43:16;10.20;99.90
4602;DHT22;2313;48.552;9.370;2022-09-17T06:45:41;10.20;99.90
4602;DHT22;2313;48.552;9.370;2022-09-17T06:48:07;10.30;99.90
4602;DHT22;2313;48.552;9.370;2022-09-17T06:50:33;10.30;99.90
4602;DHT22;2313;48.552;9.370;2022-09-17T06:52:59;10.30;99.90
4602;DHT22;2313;48.552;9.370;2022-09-17T06:55:25;10.30;99.90
4602;DHT22;2313;48.552;9.370;2022-09-17T06:57:51;10.30;99.90
4602;DHT22;2313;48.552;9.370;2022-09-17T07:00:17;10.30;99.90
4602;DHT22;2313;48.552;9.370;2022-09-17T07:02:42;10.20;99.90
4602;DHT22;2313;48.552;9.370;2022-09-17T07:05:08;10.30;99.90
4602;DHT22;2313;48.552;9.370;2022-09-17T07:07:34;10.20;99.90
4602;DHT22;2313;48.552;9.370;2022-09-17T07:10:03;10.40;99.90
4602;DHT22;2313;48.552;9.370;2022-09-17T07:12:29;10.30;99.90
4602;DHT22;2313;48.552;9.370;2022-09-17T07:14:54;10.40;99.90
4602;DHT22;2313;48.552;9.370;2022-09-17T07:17:20;10.40;99.90
4602;DHT22;2313;48.552;9.370;2022-09-17T07:19:46;10.40;99.90
4602;DHT22;2313;48.552;9.370;2022-09-17T07:22:11;10.40;99.90
4602;DHT22;2313;48.552;9.370;2022-09-17T07:24:38;10.40;99.90
4602;DHT22;2313;48.552;9.370;2022-09-17T07:27:04;10.40;99.90
4602;DHT22;2313;48.552;9.370;2022-09-17T07:29:29;10.50;99.90
4602;DHT22;2313;48.552;9.370;2022-09-17T07:31:56;10.50;99.90
4602;DHT22;2313;48.552;9.370;2022-09-17T07:34:23;10.60;99.90
4602;DHT22;2313;48.552;9.370;2022-09-17T07:36:52;10.50;99.90
4602;DHT22;2313;48.552;9.370;2022-09-17T07:39:17;10.60;99.90
4602;DHT22;2313;48.552;9.370;2022-09-17T07:41:46;10.60;99.90
4602;DHT22;2313;48.552;9.370;2022-09-17T07:44:14;10.60;99.90
4602;DHT22;2313;48.552;9.370;2022-09-17T07:46:40;10.50;99.90
4602;DHT22;2313;48.552;9.370;2022-09-17T07:49:06;10.60;99.90
4602;DHT22;2313;48.552;9.370;2022-09-17T07:51:31;10.60;99.90
4602;DHT22;2313;48.552;9.370;2022-09-17T07:53:58;10.50;99.90
4602;DHT22;2313;48.552;9.370;2022-09-17T07:56:27;10.60;99.90
4602;DHT22;2313;48.552;9.370;2022-09-17T07:58:53;10.50;99.90
4602;DHT22;2313;48.552;9.370;2022-09-17T08:01:18;10.40;99.90
4602;DHT22;2313;48.552;9.370;2022-09-17T08:03:49;10.30;99.90
4602;DHT22;2313;48.552;9.370;2022-09-17T08:06:18;10.30;99.90
4602;DHT22;2313;48.552;9.370;2022-09-17T08:08:44;10.30;99.90
4602;DHT22;2313;48.552;9.370;2022-09-17T08:11:12;10.30;99.90
4602;DHT22;2313;48.552;9.370;2022-09-17T08:13:38;10.30;99.90
4602;DHT22;2313;48.552;9.370;2022-09-17T08:16:10;10.40;99.90
4602;DHT22;2313;48.552;9.370;2022-09-17T08:18:37;10.50;99.90
4602;DHT22;2313;48.552;9.370;2022-09-17T08:21:05;10.50;99.90
4602;DHT22;2313;48.552;9.370;2022-09-17T08:23:33;10.50;99.90
4602;DHT22;2313;48.552;9.370;2022-09-17T08:25:59;10.60;99.90
4602;DHT22;2313;48.552;9.370;2022-09-17T08:28:27;10.60;99.90
4602;DHT22;2313;48.552;9.370;2022-09-17T08:30:53;10.50;99.90
4602;DHT22;2313;48.552;9.370;2022-09-17T08:33:20;10.40;99.90
4602;DHT22;2313;48.552;9.370;2022-09-17T08:35:53;10.40;99.90
4602;DHT22;2313;48.552;9.370;2022-09-17T08:38:19;10.40;99.90
4602;DHT22;2313;48.552;9.370;2022-09-17T08:46:42;10.80;99.90
4602;DHT22;2313;48.552;9.370;2022-09-17T08:49:32;10.70;99.90
4602;DHT22;2313;48.552;9.370;2022-09-17T08:55:12;10.50;99.90
4602;DHT22;2313;48.552;9.370;2022-09-17T09:00:22;10.40;99.90
4602;DHT22;2313;48.552;9.370;2022-09-17T09:05:54;10.30;99.90
4602;DHT22;2313;48.552;9.370;2022-09-17T09:10:57;10.20;99.90
4602;DHT22;2313;48.552;9.370;2022-09-17T09:13:28;10.30;99.90
4602;DHT22;2313;48.552;9.370;2022-09-17T09:16:02;10.40;99.90
4602;DHT22;2313;48.552;9.370;2022-09-17T09:18:32;10.40;99.90
4602;DHT22;2313;48.552;9.370;2022-09-17T09:23:53;10.60;99.90
4602;DHT22;2313;48.552;9.370;2022-09-17T09:26:31;10.80;99.90
4602;DHT22;2313;48.552;9.370;2022-09-17T09:29:15;10.90;99.90
4602;DHT22;2313;48.552;9.370;2022-09-17T09:32:13;10.90;99.90
4602;DHT22;2313;48.552;9.370;2022-09-17T09:34:41;11.00;99.90
4602;DHT22;2313;48.552;9.370;2022-09-17T09:37:21;11.10;99.90
4602;DHT22;2313;48.552;9.370;2022-09-17T09:39:50;11.30;99.90
4602;DHT22;2313;48.552;9.370;2022-09-17T09:44:48;11.40;99.90
4602;DHT22;2313;48.552;9.370;2022-09-17T09:53:30;11.80;99.90
4602;DHT22;2313;48.552;9.370;2022-09-17T09:56:24;11.60;99.90
4602;DHT22;2313;48.552;9.370;2022-09-17T09:58:52;11.60;99.90
4602;DHT22;2313;48.552;9.370;2022-09-17T10:01:19;11.60;99.90
4602;DHT22;2313;48.552;9.370;2022-09-17T10:03:46;11.70;99.90
4602;DHT22;2313;48.552;9.370;2022-09-17T10:06:16;11.90;99.90
4602;DHT22;2313;48.552;9.370;2022-09-17T10:11:29;12.00;99.90
4602;DHT22;2313;48.552;9.370;2022-09-17T10:14:23;12.00;99.90
4602;DHT22;2313;48.552;9.370;2022-09-17T10:17:02;11.90;99.90
4602;DHT22;2313;48.552;9.370;2022-09-17T10:19:35;12.20;99.90
4602;DHT22;2313;48.552;9.370;2022-09-17T10:24:46;12.50;99.90
4602;DHT22;2313;48.552;9.370;2022-09-17T10:27:16;12.60;99.90
4602;DHT22;2313;48.552;9.370;2022-09-17T10:29:43;12.60;99.90
4602;DHT22;2313;48.552;9.370;2022-09-17T10:32:21;12.50;99.90
4602;DHT22;2313;48.552;9.370;2022-09-17T10:37:50;12.40;99.90
4602;DHT22;2313;48.552;9.370;2022-09-17T10:42:49;12.50;99.90
4602;DHT22;2313;48.552;9.370;2022-09-17T10:45:26;12.50;99.90
4602;DHT22;2313;48.552;9.370;2022-09-17T10:47:54;12.20;99.90
4602;DHT22;2313;48.552;9.370;2022-09-17T10:50:26;12.00;99.90
4602;DHT22;2313;48.552;9.370;2022-09-17T10:52:55;11.80;99.90
4602;DHT22;2313;48.552;9.370;2022-09-17T11:27:52;14.00;99.90
4602;DHT22;2313;48.552;9.370;2022-09-17T11:30:22;13.90;99.90
4602;DHT22;2313;48.552;9.370;2022-09-17T11:35:36;13.90;99.90
4602;DHT22;2313;48.552;9.370;2022-09-17T11:38:37;13.70;99.90
4602;DHT22;2313;48.552;9.370;2022-09-17T11:41:03;13.60;99.90
4602;DHT22;2313;48.552;9.370;2022-09-17T11:43:33;13.90;99.90
4602;DHT22;2313;48.552;9.370;2022-09-17T11:46:05;14.10;99.90
4602;DHT22;2313;48.552;9.370;2022-09-17T11:48:41;14.30;99.90
4602;DHT22;2313;48.552;9.370;2022-09-17T11:51:27;14.20;99.90
4602;DHT22;2313;48.552;9.370;2022-09-17T11:56:43;14.20;99.90
4602;DHT22;2313;48.552;9.370;2022-09-17T12:01:59;13.90;99.90
4602;DHT22;2313;48.552;9.370;2022-09-17T12:04:46;13.80;99.90
4602;DHT22;2313;48.552;9.370;2022-09-17T12:07:23;14.20;99.90
4602;DHT22;2313;48.552;9.370;2022-09-17T12:12:52;15.00;99.90
4602;DHT22;2313;48.552;9.370;2022-09-17T12:15:23;15.40;99.90
4602;DHT22;2313;48.552;9.370;2022-09-17T12:17:55;15.50;99.90
4602;DHT22;2313;48.552;9.370;2022-09-17T12:20:31;15.50;99.90
4602;DHT22;2313;48.552;9.370;2022-09-17T12:23:02;15.30;99.90
4602;DHT22;2313;48.552;9.370;2022-09-17T12:25:35;15.20;99.90
4602;DHT22;2313;48.552;9.370;2022-09-17T12:28:11;15.40;99.90
4602;DHT22;2313;48.552;9.370;2022-09-17T12:30:43;15.50;99.90
4602;DHT22;2313;48.552;9.370;2022-09-17T12:33:17;15.30;99.90
4602;DHT22;2313;48.552;9.370;2022-09-17T12:36:20;15.10;99.90
4602;DHT22;2313;48.552;9.370;2022-09-17T12:42:23;15.00;99.90
4602;DHT22;2313;48.552;9.370;2022-09-17T12:58:39;13.90;99.90
4602;DHT22;2313;48.552;9.370;2022-09-17T13:01:21;14.00;99.90
4602;DHT22;2313;48.552;9.370;2022-09-17T13:03:56;13.90;99.90
4602;DHT22;2313;48.552;9.370;2022-09-17T13:12:25;14.00;99.90
4602;DHT22;2313;48.552;9.370;2022-09-17T13:17:07;14.10;99.90
4602;DHT22;2313;48.552;9.370;2022-09-17T13:20:00;14.10;99.90
4602;DHT22;2313;48.552;9.370;2022-09-17T13:22:29;14.00;99.90
4602;DHT22;2313;48.552;9.370;2022-09-17T13:25:06;13.80;99.90
4602;DHT22;2313;48.552;9.370;2022-09-17T13:27:33;13.70;99.90
4602;DHT22;2313;48.552;9.370;2022-09-17T13:30:06;13.70;99.90
4602;DHT22;2313;48.552;9.370;2022-09-17T13:32:42;13.50;99.90
4602;DHT22;2313;48.552;9.370;2022-09-17T13:38:04;13.00;99.90
4602;DHT22;2313;48.552;9.370;2022-09-17T13:40:31;12.70;99.90
4602;DHT22;2313;48.552;9.370;2022-09-17T13:43:07;12.30;99.90
4602;DHT22;2313;48.552;9.370;2022-09-17T13:48:30;11.30;99.90
4602;DHT22;2313;48.552;9.370;2022-09-17T13:50:59;11.10;99.90
4602;DHT22;2313;48.552;9.370;2022-09-17T13:53:51;10.90;99.90
4602;DHT22;2313;48.552;9.370;2022-09-17T13:56:49;10.70;99.90
4602;DHT22;2313;48.552;9.370;2022-09-17T13:59:19;10.60;99.90
4602;DHT22;2313;48.552;9.370;2022-09-17T14:09:52;10.90;99.90
4602;DHT22;2313;48.552;9.370;2022-09-17T14:15:33;11.30;99.90
4602;DHT22;2313;48.552;9.370;2022-09-17T14:21:03;11.40;99.90
4602;DHT22;2313;48.552;9.370;2022-09-17T14:23:33;11.50;99.90
4602;DHT22;2313;48.552;9.370;2022-09-17T14:26:01;11.70;99.90
4602;DHT22;2313;48.552;9.370;2022-09-17T14:28:38;11.80;99.90
4602;DHT22;2313;48.552;9.370;2022-09-17T14:31:15;11.80;99.90
4602;DHT22;2313;48.552;9.370;2022-09-17T14:33:44;11.90;99.90
4602;DHT22;2313;48.552;9.370;2022-09-17T14:36:15;12.10;99.90
4602;DHT22;2313;48.552;9.370;2022-09-17T14:38:53;12.20;99.90
4602;DHT22;2313;48.552;9.370;2022-09-17T14:41:28;12.10;99.90
4602;DHT22;2313;48.552;9.370;2022-09-17T14:44:12;12.20;99.90
4602;DHT22;2313;48.552;9.370;2022-09-17T14:46:54;12.40;99.90
4602;DHT22;2313;48.552;9.370;2022-09-17T14:51:47;12.40;99.90
4602;DHT22;2313;48.552;9.370;2022-09-17T14:54:21;12.30;99.90
4602;DHT22;2313;48.552;9.370;2022-09-17T14:59:45;12.10;99.90
4602;DHT22;2313;48.552;9.370;2022-09-17T15:02:35;12.00;99.90
4602;DHT22;2313;48.552;9.370;2022-09-17T15:05:21;12.00;99.90
4602;DHT22;2313;48.552;9.370;2022-09-17T15:07:48;12.00;99.90
4602;DHT22;2313;48.552;9.370;2022-09-17T15:10:21;12.00;99.90
4602;DHT22;2313;48.552;9.370;2022-09-17T15:12:48;11.90;99.90
4602;DHT22;2313;48.552;9.370;2022-09-17T15:15:25;11.80;99.90
4602;DHT22;2313;48.552;9.370;2022-09-17T15:17:51;11.90;99.90
4602;DHT22;2313;48.552;9.370;2022-09-17T15:20:28;12.00;99.90
4602;DHT22;2313;48.552;9.370;2022-09-17T15:23:18;12.10;99.90
4602;DHT22;2313;48.552;9.370;2022-09-17T15:25:49;12.20;99.90
4602;DHT22;2313;48.552;9.370;2022-09-17T15:30:57;12.10;99.90
4602;DHT22;2313;48.552;9.370;2022-09-17T15:33:23;12.10;99.90
4602;DHT22;2313;48.552;9.370;2022-09-17T15:36:06;12.10;99.90
4602;DHT22;2313;48.552;9.370;2022-09-17T15:38:36;12.10;99.90
4602;DHT22;2313;48.552;9.370;2022-09-17T15:41:33;12.00;99.90
4602;DHT22;2313;48.552;9.370;2022-09-17T15:44:25;11.90;99.90
4602;DHT22;2313;48.552;9.370;2022-09-17T15:46:52;11.90;99.90
4602;DHT22;2313;48.552;9.370;2022-09-17T15:49:34;11.80;99.90
4602;DHT22;2313;48.552;9.370;2022-09-17T15:52:29;11.80;99.90
4602;DHT22;2313;48.552;9.370;2022-09-17T15:54:59;11.80;99.90
4602;DHT22;2313;48.552;9.370;2022-09-17T15:57:28;11.80;99.90
4602;DHT22;2313;48.552;9.370;2022-09-17T15:59:55;11.80;99.90
4602;DHT22;2313;48.552;9.370;2022-09-17T16:02:26;11.80;99.90
4602;DHT22;2313;48.552;9.370;2022-09-17T16:07:33;11.90;99.90
4602;DHT22;2313;48.552;9.370;2022-09-17T16:09:59;11.90;99.90
4602;DHT22;2313;48.552;9.370;2022-09-17T16:12:26;11.90;99.90
4602;DHT22;2313;48.552;9.370;2022-09-17T16:14:58;11.80;99.90
4602;DHT22;2313;48.552;9.370;2022-09-17T16:19:55;11.70;99.90
4602;DHT22;2313;48.552;9.370;2022-09-17T16:22:21;11.70;99.90
4602;DHT22;2313;48.552;9.370;2022-09-17T16:24:47;11.70;99.90
4602;DHT22;2313;48.552;9.370;2022-09-17T16:30:17;11.60;99.90
4602;DHT22;2313;48.552;9.370;2022-09-17T16:32:42;11.60;99.90
4602;DHT22;2313;48.552;9.370;2022-09-17T16:35:17;11.70;99.90
4602;DHT22;2313;48.552;9.370;2022-09-17T16:37:53;11.60;99.90
4602;DHT22;2313;48.552;9.370;2022-09-17T16:40:21;11.60;99.90
4602;DHT22;2313;48.552;9.370;2022-09-17T16:42:47;11.60;99.90
4602;DHT22;2313;48.552;9.370;2022-09-17T16:45:13;11.50;99.90
4602;DHT22;2313;48.552;9.370;2022-09-17T16:47:40;11.60;99.90
4602;DHT22;2313;48.552;9.370;2022-09-17T16:50:13;11.60;99.90
4602;DHT22;2313;48.552;9.370;2022-09-17T16:52:39;11.60;99.90
4602;DHT22;2313;48.552;9.370;2022-09-17T16:55:08;11.70;99.90
4602;DHT22;2313;48.552;9.370;2022-09-17T16:57:34;11.80;99.90
4602;DHT22;2313;48.552;9.370;2022-09-17T17:00:00;11.70;99.90
4602;DHT22;2313;48.552;9.370;2022-09-17T17:02:26;11.80;99.90
4602;DHT22;2313;48.552;9.370;2022-09-17T17:04:52;11.80;99.90
4602;DHT22;2313;48.552;9.370;2022-09-17T17:07:18;11.80;99.90
4602;DHT22;2313;48.552;9.370;2022-09-17T17:09:45;11.80;99.90
4602;DHT22;2313;48.552;9.370;2022-09-17T17:12:10;11.80;99.90
4602;DHT22;2313;48.552;9.370;2022-09-17T17:14:36;11.70;99.90
4602;DHT22;2313;48.552;9.370;2022-09-17T17:17:01;11.70;99.90
4602;DHT22;2313;48.552;9.370;2022-09-17T17:19:27;11.60;99.90
4602;DHT22;2313;48.552;9.370;2022-09-17T17:21:55;11.50;99.90
4602;DHT22;2313;48.552;9.370;2022-09-17T17:24:20;11.70;99.90
4602;DHT22;2313;48.552;9.370;2022-09-17T17:26:46;11.50;99.90
4602;DHT22;2313;48.552;9.370;2022-09-17T17:29:12;11.50;99.90
4602;DHT22;2313;48.552;9.370;2022-09-17T17:31:39;11.30;99.90
4602;DHT22;2313;48.552;9.370;2022-09-17T17:34:04;11.40;99.90
4602;DHT22;2313;48.552;9.370;2022-09-17T17:36:30;11.30;99.90
4602;DHT22;2313;48.552;9.370;2022-09-17T17:38:57;11.40;99.90
4602;DHT22;2313;48.552;9.370;2022-09-17T17:41:23;11.30;99.90
4602;DHT22;2313;48.552;9.370;2022-09-17T17:43:54;11.30;99.90
4602;DHT22;2313;48.552;9.370;2022-09-17T17:46:21;11.30;99.90
4602;DHT22;2313;48.552;9.370;2022-09-17T17:48:47;11.30;99.90
4602;DHT22;2313;48.552;9.370;2022-09-17T17:51:13;11.30;99.90
4602;DHT22;2313;48.552;9.370;2022-09-17T17:53:41;11.20;99.90
4602;DHT22;2313;48.552;9.370;2022-09-17T17:56:08;11.10;99.90
4602;DHT22;2313;48.552;9.370;2022-09-17T17:58:37;11.20;99.90
4602;DHT22;2313;48.552;9.370;2022-09-17T18:01:20;11.00;99.90
4602;DHT22;2313;48.552;9.370;2022-09-17T18:03:47;11.00;99.90
4602;DHT22;2313;48.552;9.370;2022-09-17T18:06:15;11.00;99.90
4602;DHT22;2313;48.552;9.370;2022-09-17T18:08:44;10.90;99.90
4602;DHT22;2313;48.552;9.370;2022-09-17T18:11:10;10.90;99.90
4602;DHT22;2313;48.552;9.370;2022-09-17T18:13:37;11.00;99.90
4602;DHT22;2313;48.552;9.370;2022-09-17T18:16:04;10.80;99.90
4602;DHT22;2313;48.552;9.370;2022-09-17T18:18:38;10.90;99.90
4602;DHT22;2313;48.552;9.370;2022-09-17T18:21:06;10.90;99.90
4602;DHT22;2313;48.552;9.370;2022-09-17T18:23:34;10.70;99.90
4602;DHT22;2313;48.552;9.370;2022-09-17T18:26:01;10.70;99.90
4602;DHT22;2313;48.552;9.370;2022-09-17T18:28:28;10.70;99.90
4602;DHT22;2313;48.552;9.370;2022-09-17T18:30:56;10.60;99.90
4602;DHT22;2313;48.552;9.370;2022-09-17T18:33:25;10.60;99.90
4602;DHT22;2313;48.552;9.370;2022-09-17T18:35:52;10.50;99.90
4602;DHT22;2313;48.552;9.370;2022-09-17T18:38:22;10.50;99.90
4602;DHT22;2313;48.552;9.370;2022-09-17T18:40:48;10.50;99.90
4602;DHT22;2313;48.552;9.370;2022-09-17T18:43:14;10.50;99.90
4602;DHT22;2313;48.552;9.370;2022-09-17T18:45:39;10.40;99.90
4602;DHT22;2313;48.552;9.370;2022-09-17T18:48:06;10.40;99.90
4602;DHT22;2313;48.552;9.370;2022-09-17T18:50:32;10.40;99.90
4602;DHT22;2313;48.552;9.370;2022-09-17T18:52:58;10.40;99.90
4602;DHT22;2313;48.552;9.370;2022-09-17T18:55:24;10.30;99.90
4602;DHT22;2313;48.552;9.370;2022-09-17T18:57:51;10.30;99.90
4602;DHT22;2313;48.552;9.370;2022-09-17T19:00:20;10.30;99.90
4602;DHT22;2313;48.552;9.370;2022-09-17T19:02:47;10.20;99.90
4602;DHT22;2313;48.552;9.370;2022-09-17T19:05:17;10.20;99.90
4602;DHT22;2313;48.552;9.370;2022-09-17T19:07:44;10.20;99.90
4602;DHT22;2313;48.552;9.370;2022-09-17T19:10:10;10.20;99.90
4602;DHT22;2313;48.552;9.370;2022-09-17T19:12:35;10.20;99.90
4602;DHT22;2313;48.552;9.370;2022-09-17T19:15:01;10.20;99.90
4602;DHT22;2313;48.552;9.370;2022-09-17T19:17:27;10.20;99.90
4602;DHT22;2313;48.552;9.370;2022-09-17T19:19:55;10.20;99.90
4602;DHT22;2313;48.552;9.370;2022-09-17T19:22:22;10.20;99.90
4602;DHT22;2313;48.552;9.370;2022-09-17T19:24:48;10.10;99.90
4602;DHT22;2313;48.552;9.370;2022-09-17T19:27:13;10.10;99.90
4602;DHT22;2313;48.552;9.370;2022-09-17T19:29:39;10.30;99.90